createdAt,value
2019-02-24T00:00:20.709Z,11.10
2019-02-24T00:01:20.698Z,9.50
2019-02-24T00:02:20.690Z,10.60
2019-02-24T00:03:20.673Z,10.10
2019-02-24T00:04:20.692Z,9.60
2019-02-24T00:05:20.666Z,11.30
2019-02-24T00:06:20.649Z,11.30
2019-02-24T00:07:20.629Z,10.60
2019-02-24T00:08:20.658Z,10.19
2019-02-24T00:09:20.612Z,10.30
2019-02-24T00:10:20.595Z,10.89
2019-02-24T00:11:20.592Z,10.39
2019-02-24T00:12:20.585Z,10.10
2019-02-24T00:13:20.584Z,11.19
2019-02-24T00:14:20.562Z,10.00
2019-02-24T00:15:20.546Z,9.69
2019-02-24T00:16:20.537Z,10.00
2019-02-24T00:17:20.540Z,10.80
2019-02-24T00:18:20.511Z,12.00
2019-02-24T00:19:20.503Z,9.69
2019-02-24T00:20:20.522Z,11.19
2019-02-24T00:21:20.484Z,9.30
2019-02-24T00:22:20.469Z,10.50
2019-02-24T00:23:20.460Z,10.19
2019-02-24T00:24:20.455Z,9.80
2019-02-24T00:25:20.447Z,11.80
2019-02-24T00:26:20.426Z,11.10
2019-02-24T00:27:20.421Z,10.19
2019-02-24T00:28:20.430Z,8.89
2019-02-24T00:29:20.444Z,9.39
2019-02-24T00:30:20.387Z,11.10
2019-02-24T00:31:20.377Z,9.19
2019-02-24T00:32:20.436Z,9.60
2019-02-24T00:33:20.354Z,8.89
2019-02-24T00:34:20.341Z,8.30
2019-02-24T00:35:20.333Z,11.00
2019-02-24T00:36:20.335Z,9.80
2019-02-24T00:37:20.315Z,9.39
2019-02-24T00:38:20.875Z,8.80
2019-02-24T00:39:20.292Z,10.30
2019-02-24T00:40:20.343Z,8.69
2019-02-24T00:41:20.270Z,8.89
2019-02-24T00:42:20.260Z,11.10
2019-02-24T00:43:20.243Z,9.00
2019-02-24T00:44:20.241Z,9.00
2019-02-24T00:45:20.231Z,9.39
2019-02-24T00:46:20.225Z,9.50
2019-02-24T00:47:20.206Z,9.89
2019-02-24T00:48:20.204Z,9.50
2019-02-24T00:49:20.178Z,10.10
2019-02-24T00:50:20.237Z,9.69
2019-02-24T00:51:20.163Z,9.19
2019-02-24T00:52:20.151Z,9.10
2019-02-24T00:53:20.134Z,8.39
2019-02-24T00:54:20.132Z,10.89
2019-02-24T00:55:20.127Z,10.10
2019-02-24T00:56:20.118Z,7.59
2019-02-24T00:57:20.130Z,10.30
2019-02-24T00:58:20.090Z,8.60
2019-02-24T00:59:20.067Z,11.60
2019-02-24T01:00:20.071Z,10.69
2019-02-24T01:01:20.057Z,12.30
2019-02-24T01:02:20.045Z,9.30
2019-02-24T01:03:20.032Z,9.39
2019-02-24T01:04:20.021Z,9.69
2019-02-24T01:05:20.004Z,9.30
2019-02-24T01:06:20.006Z,12.89
2019-02-24T01:07:19.980Z,8.10
2019-02-24T01:08:19.972Z,13.30
2019-02-24T01:09:19.976Z,9.39
2019-02-24T01:10:19.950Z,9.69
2019-02-24T01:11:19.953Z,8.80
2019-02-24T01:12:19.946Z,11.80
2019-02-24T01:13:19.926Z,11.80
2019-02-24T01:14:19.905Z,10.69
2019-02-24T01:15:19.907Z,10.60
2019-02-24T01:16:19.894Z,8.60
2019-02-24T01:17:19.932Z,9.50
2019-02-24T01:18:19.865Z,9.89
2019-02-24T01:19:19.853Z,9.89
2019-02-24T01:20:19.851Z,9.50
2019-02-24T01:21:19.833Z,10.69
2019-02-24T01:22:19.832Z,9.30
2019-02-24T01:23:19.819Z,9.89
2019-02-24T01:24:19.806Z,10.00
2019-02-24T01:25:19.793Z,9.19
2019-02-24T01:26:19.773Z,10.50
2019-02-24T01:27:19.777Z,10.30
2019-02-24T01:28:25.206Z,10.39
2019-02-24T01:29:19.745Z,9.00
2019-02-24T01:30:19.733Z,8.80
2019-02-24T01:31:19.732Z,10.00
2019-02-24T01:32:19.716Z,10.10
2019-02-24T01:33:19.700Z,10.19
2019-02-24T01:34:19.731Z,9.39
2019-02-24T01:35:19.673Z,11.30
2019-02-24T01:36:19.689Z,8.30
2019-02-24T01:37:19.657Z,9.69
2019-02-24T01:38:19.647Z,10.60
2019-02-24T01:39:19.633Z,10.10
2019-02-24T01:40:19.640Z,12.19
2019-02-24T01:41:19.616Z,10.39
2019-02-24T01:42:19.618Z,9.30
2019-02-24T01:43:19.608Z,12.60
2019-02-24T01:44:19.582Z,9.30
2019-02-24T01:45:19.570Z,9.50
2019-02-24T01:46:19.561Z,9.80
2019-02-24T01:47:19.569Z,10.10
2019-02-24T01:48:21.126Z,8.60
2019-02-24T01:49:19.608Z,10.89
2019-02-24T01:50:19.566Z,11.19
2019-02-24T01:51:19.507Z,9.89
2019-02-24T01:52:19.497Z,10.50
2019-02-24T01:53:19.569Z,11.50
2019-02-24T01:54:19.482Z,8.50
2019-02-24T01:55:19.462Z,9.69
2019-02-24T01:56:19.459Z,8.69
2019-02-24T01:57:19.453Z,10.00
2019-02-24T01:58:19.429Z,9.50
2019-02-24T01:59:19.433Z,9.80
2019-02-24T02:00:19.410Z,10.10
2019-02-24T02:01:19.413Z,10.69
2019-02-24T02:02:19.385Z,9.80
2019-02-24T02:03:19.433Z,10.60
2019-02-24T02:04:19.381Z,10.10
2019-02-24T02:05:19.349Z,10.69
2019-02-24T02:06:19.341Z,9.89
2019-02-24T02:07:19.337Z,11.60
2019-02-24T02:08:19.348Z,8.19
2019-02-24T02:09:19.313Z,11.69
2019-02-24T02:10:19.305Z,11.10
2019-02-24T02:11:19.298Z,9.89
2019-02-24T02:12:19.295Z,10.10
2019-02-24T02:13:19.269Z,9.69
2019-02-24T02:14:19.254Z,8.50
2019-02-24T02:15:19.242Z,9.39
2019-02-24T02:16:19.236Z,9.80
2019-02-24T02:17:19.227Z,10.39
2019-02-24T02:18:19.217Z,10.60
2019-02-24T02:19:19.214Z,9.69
2019-02-24T02:20:19.198Z,9.39
2019-02-24T02:21:19.184Z,12.50
2019-02-24T02:22:19.187Z,10.19
2019-02-24T02:23:19.168Z,9.80
2019-02-24T02:24:19.179Z,10.89
2019-02-24T02:25:19.148Z,9.60
2019-02-24T02:26:19.127Z,10.19
2019-02-24T02:27:19.125Z,9.89
2019-02-24T02:28:19.110Z,10.50
2019-02-24T02:29:19.090Z,10.80
2019-02-24T02:30:19.099Z,9.10
2019-02-24T02:31:19.072Z,10.10
2019-02-24T02:32:19.063Z,12.10
2019-02-24T02:33:19.061Z,10.60
2019-02-24T02:34:19.074Z,10.00
2019-02-24T02:35:19.030Z,9.80
2019-02-24T02:36:19.017Z,9.30
2019-02-24T02:37:19.023Z,11.39
2019-02-24T02:38:19.001Z,8.60
2019-02-24T02:39:19.022Z,10.30
2019-02-24T02:40:18.991Z,9.10
2019-02-24T02:41:18.978Z,9.30
2019-02-24T02:42:18.955Z,9.80
2019-02-24T02:43:18.944Z,8.30
2019-02-24T02:44:18.956Z,9.89
2019-02-24T02:45:18.923Z,9.50
2019-02-24T02:46:18.916Z,10.39
2019-02-24T02:47:18.924Z,10.10
2019-02-24T02:48:18.890Z,10.39
2019-02-24T02:49:18.923Z,8.39
2019-02-24T02:50:18.878Z,9.80
2019-02-24T02:51:18.866Z,9.50
2019-02-24T02:52:18.860Z,9.30
2019-02-24T02:53:18.839Z,9.39
2019-02-24T02:54:18.840Z,8.60
2019-02-24T02:55:18.820Z,8.80
2019-02-24T02:56:18.800Z,9.10
2019-02-24T02:57:18.816Z,11.39
2019-02-24T02:58:18.786Z,9.39
2019-02-24T02:59:18.769Z,9.19
2019-02-24T03:00:18.759Z,8.19
2019-02-24T03:01:18.750Z,9.00
2019-02-24T03:02:24.318Z,9.50
2019-02-24T03:03:43.665Z,9.60
2019-02-24T03:04:43.654Z,8.69
2019-02-24T03:05:43.644Z,9.39
2019-02-24T03:06:43.639Z,11.50
2019-02-24T03:07:43.616Z,9.19
2019-02-24T03:08:43.610Z,9.10
2019-02-24T03:09:43.600Z,8.19
2019-02-24T03:10:43.612Z,8.80
2019-02-24T03:11:43.575Z,10.19
2019-02-24T03:12:43.564Z,8.69
2019-02-24T03:13:43.550Z,9.00
2019-02-24T03:14:43.563Z,10.10
2019-02-24T03:15:43.529Z,8.00
2019-02-24T03:16:43.522Z,9.80
2019-02-24T03:17:43.541Z,9.30
2019-02-24T03:18:43.520Z,9.50
2019-02-24T03:19:43.490Z,9.30
2019-02-24T03:20:43.475Z,9.60
2019-02-24T03:21:43.498Z,11.10
2019-02-24T03:22:43.455Z,11.00
2019-02-24T03:23:43.507Z,10.60
2019-02-24T03:24:43.432Z,10.00
2019-02-24T03:25:43.424Z,9.30
2019-02-24T03:26:43.502Z,9.50
2019-02-24T03:27:43.409Z,7.90
2019-02-24T03:28:43.383Z,8.30
2019-02-24T03:29:43.380Z,8.60
2019-02-24T03:30:43.383Z,8.50
2019-02-24T03:31:43.389Z,9.10
2019-02-24T03:32:43.355Z,9.00
2019-02-24T03:33:44.924Z,9.00
2019-02-24T03:34:43.336Z,8.39
2019-02-24T03:35:43.314Z,9.69
2019-02-24T03:36:43.309Z,9.19
2019-02-24T03:37:43.320Z,7.69
2019-02-24T03:38:43.293Z,9.19
2019-02-24T03:39:43.283Z,10.50
2019-02-24T03:40:43.300Z,8.69
2019-02-24T03:41:43.254Z,9.60
2019-02-24T03:42:43.234Z,8.80
2019-02-24T03:43:43.226Z,9.00
2019-02-24T03:44:43.217Z,8.89
2019-02-24T03:45:43.217Z,10.39
2019-02-24T03:46:43.195Z,8.00
2019-02-24T03:47:43.183Z,9.80
2019-02-24T03:48:43.171Z,10.50
2019-02-24T03:49:43.175Z,10.69
2019-02-24T03:50:43.190Z,10.30
2019-02-24T03:51:43.155Z,9.39
2019-02-24T03:52:43.126Z,9.60
2019-02-24T03:53:43.118Z,10.80
2019-02-24T03:54:43.105Z,10.19
2019-02-24T03:55:43.110Z,8.80
2019-02-24T03:56:43.088Z,8.69
2019-02-24T03:57:43.076Z,9.19
2019-02-24T03:58:43.119Z,9.69
2019-02-24T03:59:43.063Z,7.80
2019-02-24T04:00:43.046Z,9.30
2019-02-24T04:01:43.024Z,8.39
2019-02-24T04:02:43.050Z,9.10
2019-02-24T04:03:43.041Z,8.89
2019-02-24T04:04:43.010Z,9.69
2019-02-24T04:05:42.989Z,9.10
2019-02-24T04:06:42.982Z,10.69
2019-02-24T04:07:42.978Z,8.19
2019-02-24T04:08:42.971Z,8.60
2019-02-24T04:09:42.946Z,8.30
2019-02-24T04:10:42.940Z,9.89
2019-02-24T04:11:42.917Z,8.39
2019-02-24T04:12:42.923Z,8.80
2019-02-24T04:13:42.902Z,9.19
2019-02-24T04:14:42.923Z,9.10
2019-02-24T04:15:42.891Z,8.30
2019-02-24T04:16:42.872Z,8.60
2019-02-24T04:17:42.861Z,8.80
2019-02-24T04:18:42.849Z,10.60
2019-02-24T04:19:42.837Z,8.80
2019-02-24T04:20:42.813Z,9.89
2019-02-24T04:21:42.834Z,8.19
2019-02-24T04:22:42.810Z,7.90
2019-02-24T04:23:42.785Z,7.09
2019-02-24T04:24:42.774Z,7.80
2019-02-24T04:25:42.765Z,8.69
2019-02-24T04:26:42.776Z,8.10
2019-02-24T04:27:42.740Z,8.10
2019-02-24T04:28:42.739Z,11.69
2019-02-24T04:29:42.721Z,8.00
2019-02-24T04:30:42.727Z,8.19
2019-02-24T04:31:42.699Z,7.40
2019-02-24T04:32:42.774Z,8.30
2019-02-24T04:33:42.676Z,8.50
2019-02-24T04:34:42.665Z,8.39
2019-02-24T04:35:42.654Z,8.30
2019-02-24T04:36:42.649Z,8.60
2019-02-24T04:37:42.639Z,8.50
2019-02-24T04:38:42.626Z,10.00
2019-02-24T04:39:42.611Z,7.19
2019-02-24T04:40:42.603Z,7.30
2019-02-24T04:41:42.593Z,7.59
2019-02-24T04:42:42.588Z,7.50
2019-02-24T04:43:42.566Z,8.50
2019-02-24T04:44:42.566Z,9.00
2019-02-24T04:45:42.545Z,7.09
2019-02-24T04:46:42.544Z,6.90
2019-02-24T04:47:42.529Z,8.60
2019-02-24T04:48:42.523Z,9.19
2019-02-24T04:49:42.577Z,7.90
2019-02-24T04:50:42.512Z,6.59
2019-02-24T04:51:42.485Z,8.10
2019-02-24T04:52:42.470Z,8.39
2019-02-24T04:53:42.463Z,7.00
2019-02-24T04:54:42.478Z,9.19
2019-02-24T04:55:42.450Z,9.50
2019-02-24T04:56:42.425Z,8.39
2019-02-24T04:57:42.469Z,9.39
2019-02-24T04:58:42.432Z,8.30
2019-02-24T04:59:42.392Z,8.19
2019-02-24T05:00:42.436Z,7.19
2019-02-24T05:01:42.373Z,7.59
2019-02-24T05:02:42.362Z,9.50
2019-02-24T05:03:42.347Z,9.60
2019-02-24T05:04:42.335Z,7.90
2019-02-24T05:05:42.328Z,9.19
2019-02-24T05:06:42.431Z,8.89
2019-02-24T05:07:42.302Z,7.59
2019-02-24T05:08:42.298Z,7.50
2019-02-24T05:09:42.280Z,7.80
2019-02-24T05:10:42.271Z,6.59
2019-02-24T05:11:42.268Z,9.30
2019-02-24T05:12:42.265Z,7.50
2019-02-24T05:13:42.334Z,9.10
2019-02-24T05:14:42.232Z,8.69
2019-02-24T05:15:42.238Z,8.00
2019-02-24T05:16:42.207Z,6.80
2019-02-24T05:17:42.212Z,7.90
2019-02-24T05:18:42.197Z,8.30
2019-02-24T05:19:42.183Z,8.89
2019-02-24T05:20:42.168Z,7.50
2019-02-24T05:21:42.148Z,9.30
2019-02-24T05:22:42.146Z,7.69
2019-02-24T05:23:43.076Z,8.19
2019-02-24T05:24:42.145Z,7.90
2019-02-24T05:25:42.113Z,8.89
2019-02-24T05:26:42.124Z,7.90
2019-02-24T05:27:42.087Z,9.60
2019-02-24T05:28:42.122Z,8.80
2019-02-24T05:29:45.730Z,8.00
2019-02-24T05:30:42.101Z,7.69
2019-02-24T05:31:42.052Z,7.69
2019-02-24T05:32:42.029Z,8.50
2019-02-24T05:33:42.017Z,8.50
2019-02-24T05:34:42.037Z,7.19
2019-02-24T05:35:41.999Z,7.19
2019-02-24T05:36:41.988Z,8.30
2019-02-24T05:37:41.977Z,8.60
2019-02-24T05:38:41.968Z,7.50
2019-02-24T05:39:41.969Z,9.30
2019-02-24T05:40:41.948Z,8.50
2019-02-24T05:41:41.943Z,8.30
2019-02-24T05:42:42.609Z,8.19
2019-02-24T05:43:41.915Z,9.10
2019-02-24T05:44:41.907Z,8.80
2019-02-24T05:45:41.888Z,9.10
2019-02-24T05:46:41.886Z,8.39
2019-02-24T05:47:41.882Z,8.19
2019-02-24T05:48:41.853Z,7.69
2019-02-24T05:49:41.853Z,10.00
2019-02-24T05:50:41.841Z,8.19
2019-02-24T05:51:41.821Z,9.69
2019-02-24T05:52:41.806Z,8.30
2019-02-24T05:53:41.802Z,9.39
2019-02-24T05:54:41.784Z,9.00
2019-02-24T05:55:41.782Z,7.09
2019-02-24T05:56:41.772Z,7.80
2019-02-24T05:57:41.751Z,8.30
2019-02-24T05:58:41.749Z,8.39
2019-02-24T05:59:41.837Z,8.39
2019-02-24T06:00:41.720Z,6.80
2019-02-24T06:01:41.748Z,8.00
2019-02-24T06:02:41.700Z,7.50
2019-02-24T06:03:41.693Z,8.10
2019-02-24T06:04:41.898Z,8.00
2019-02-24T06:05:41.743Z,7.90
2019-02-24T06:06:41.672Z,7.69
2019-02-24T06:07:41.649Z,9.00
2019-02-24T06:08:41.643Z,8.19
2019-02-24T06:09:41.639Z,7.40
2019-02-24T06:10:41.655Z,9.50
2019-02-24T06:11:41.679Z,9.80
2019-02-24T06:12:41.608Z,9.10
2019-02-24T06:13:41.581Z,6.90
2019-02-24T06:14:41.569Z,9.89
2019-02-24T06:15:41.564Z,8.10
2019-02-24T06:16:41.550Z,8.60
2019-02-24T06:17:41.643Z,8.50
2019-02-24T06:18:41.526Z,7.19
2019-02-24T06:19:41.515Z,8.30
2019-02-24T06:20:41.509Z,8.00
2019-02-24T06:21:41.607Z,8.69
2019-02-24T06:22:41.482Z,8.80
2019-02-24T06:23:41.487Z,7.90
2019-02-24T06:24:41.469Z,7.80
2019-02-24T06:25:41.454Z,8.60
2019-02-24T06:26:41.435Z,9.30
2019-02-24T06:27:41.430Z,9.30
2019-02-24T06:28:41.418Z,8.39
2019-02-24T06:29:41.414Z,9.69
2019-02-24T06:30:41.398Z,9.89
2019-02-24T06:31:41.387Z,8.69
2019-02-24T06:32:41.368Z,9.39
2019-02-24T06:33:41.363Z,7.90
2019-02-24T06:34:41.352Z,7.90
2019-02-24T06:35:41.348Z,9.89
2019-02-24T06:36:41.330Z,7.40
2019-02-24T06:37:41.332Z,8.89
2019-02-24T06:38:41.308Z,9.19
2019-02-24T06:39:41.300Z,9.19
2019-02-24T06:40:41.284Z,8.50
2019-02-24T06:41:41.279Z,8.39
2019-02-24T06:42:41.272Z,9.80
2019-02-24T06:43:41.267Z,8.19
2019-02-24T06:44:41.324Z,7.80
2019-02-24T06:45:41.233Z,9.50
2019-02-24T06:46:41.235Z,8.50
2019-02-24T06:47:41.267Z,7.19
2019-02-24T06:48:41.193Z,8.00
2019-02-24T06:49:41.230Z,7.50
2019-02-24T06:50:41.186Z,8.50
2019-02-24T06:51:41.182Z,7.69
2019-02-24T06:52:41.228Z,8.60
2019-02-24T06:53:41.142Z,8.19
2019-02-24T06:54:41.183Z,8.50
2019-02-24T06:55:41.121Z,8.50
2019-02-24T06:56:41.110Z,7.00
2019-02-24T06:57:41.110Z,8.69
2019-02-24T06:58:41.094Z,8.30
2019-02-24T06:59:41.159Z,7.69
2019-02-24T07:00:41.250Z,10.10
2019-02-24T07:01:41.055Z,7.50
2019-02-24T07:02:41.070Z,8.10
2019-02-24T07:03:41.027Z,7.19
2019-02-24T07:04:41.031Z,8.19
2019-02-24T07:05:41.012Z,7.30
2019-02-24T07:06:40.999Z,7.90
2019-02-24T07:07:41.026Z,10.19
2019-02-24T07:08:40.973Z,6.80
2019-02-24T07:09:40.967Z,7.80
2019-02-24T07:10:41.024Z,9.50
2019-02-24T07:11:40.940Z,8.00
2019-02-24T07:12:40.927Z,7.59
2019-02-24T07:13:40.988Z,7.59
2019-02-24T07:14:40.908Z,7.40
2019-02-24T07:15:40.894Z,10.89
2019-02-24T07:16:40.885Z,7.80
2019-02-24T07:17:40.888Z,8.80
2019-02-24T07:18:40.867Z,7.40
2019-02-24T07:19:40.883Z,7.30
2019-02-24T07:20:40.850Z,7.90
2019-02-24T07:21:40.839Z,8.80
2019-02-24T07:22:40.820Z,7.50
2019-02-24T07:23:40.833Z,8.69
2019-02-24T07:24:40.799Z,9.10
2019-02-24T07:25:40.807Z,10.19
2019-02-24T07:26:40.781Z,9.30
2019-02-24T07:27:40.759Z,9.10
2019-02-24T07:28:40.756Z,9.50
2019-02-24T07:29:40.737Z,7.19
2019-02-24T07:30:40.729Z,9.00
2019-02-24T07:31:40.807Z,8.50
2019-02-24T07:32:40.725Z,8.80
2019-02-24T07:33:40.693Z,8.39
2019-02-24T07:34:40.706Z,8.00
2019-02-24T07:35:40.693Z,8.00
2019-02-24T07:36:40.662Z,8.39
2019-02-24T07:37:40.651Z,7.59
2019-02-24T07:38:40.638Z,8.39
2019-02-24T07:39:40.631Z,8.50
2019-02-24T07:40:40.617Z,8.80
2019-02-24T07:41:40.618Z,7.59
2019-02-24T07:42:40.601Z,7.30
2019-02-24T07:43:40.598Z,8.10
2019-02-24T07:44:40.573Z,8.19
2019-02-24T07:45:40.562Z,7.19
2019-02-24T07:46:40.557Z,6.90
2019-02-24T07:47:40.667Z,8.69
2019-02-24T07:48:40.526Z,6.90
2019-02-24T07:49:40.657Z,7.40
2019-02-24T07:50:40.507Z,7.00
2019-02-24T07:51:40.495Z,7.40
2019-02-24T07:52:40.486Z,8.39
2019-02-24T07:53:40.479Z,7.50
2019-02-24T07:54:40.467Z,8.69
2019-02-24T07:55:40.452Z,8.39
2019-02-24T07:56:40.436Z,8.50
2019-02-24T07:57:40.422Z,8.50
2019-02-24T07:58:40.417Z,8.19
2019-02-24T07:59:40.406Z,8.60
2019-02-24T08:00:40.392Z,8.00
2019-02-24T08:01:40.382Z,8.19
2019-02-24T08:02:40.392Z,9.00
2019-02-24T08:03:40.381Z,7.69
2019-02-24T08:04:40.348Z,7.50
2019-02-24T08:05:40.349Z,7.30
2019-02-24T08:06:40.327Z,8.10
2019-02-24T08:07:40.314Z,8.30
2019-02-24T08:08:40.305Z,11.30
2019-02-24T08:09:40.298Z,8.80
2019-02-24T08:10:40.297Z,8.89
2019-02-24T08:11:40.274Z,8.10
2019-02-24T08:12:40.260Z,9.69
2019-02-24T08:13:40.255Z,7.90
2019-02-24T08:14:40.240Z,9.60
2019-02-24T08:15:40.237Z,8.30
2019-02-24T08:16:40.264Z,6.80
2019-02-24T08:17:40.203Z,6.59
2019-02-24T08:18:49.042Z,8.00
2019-02-24T08:19:41.185Z,11.50
2019-02-24T08:20:40.178Z,6.50
2019-02-24T08:21:40.208Z,7.09
2019-02-24T08:22:40.162Z,6.90
2019-02-24T08:23:40.146Z,6.80
2019-02-24T08:24:40.125Z,6.59
2019-02-24T08:25:40.176Z,7.40
2019-02-24T08:26:40.107Z,7.40
2019-02-24T08:27:40.101Z,6.59
2019-02-24T08:28:40.097Z,7.30
2019-02-24T08:29:40.092Z,6.50
2019-02-24T08:30:41.852Z,7.09
2019-02-24T08:31:40.059Z,6.80
2019-02-24T08:32:40.036Z,7.50
2019-02-24T08:33:40.029Z,6.69
2019-02-24T08:34:40.030Z,7.30
2019-02-24T08:35:40.005Z,7.09
2019-02-24T08:36:40.001Z,6.90
2019-02-24T08:37:39.982Z,6.80
2019-02-24T08:38:40.503Z,7.90
2019-02-24T08:39:39.962Z,5.90
2019-02-24T08:40:39.997Z,6.50
2019-02-24T08:41:39.940Z,7.30
2019-02-24T08:42:39.935Z,6.30
2019-02-24T08:43:39.914Z,6.30
2019-02-24T08:44:39.909Z,6.19
2019-02-24T08:45:39.956Z,7.30
2019-02-24T08:46:39.881Z,7.30
2019-02-24T08:47:39.883Z,6.69
2019-02-24T08:48:39.862Z,6.40
2019-02-24T08:49:39.855Z,6.40
2019-02-24T08:50:39.842Z,6.40
2019-02-24T08:51:39.837Z,5.59
2019-02-24T08:52:39.824Z,7.19
2019-02-24T08:53:39.809Z,6.00
2019-02-24T08:54:39.802Z,6.09
2019-02-24T08:55:39.785Z,5.80
2019-02-24T08:56:39.772Z,6.50
2019-02-24T08:57:39.765Z,6.19
2019-02-24T08:58:39.754Z,5.40
2019-02-24T08:59:39.739Z,5.59
2019-02-24T09:00:39.736Z,5.69
2019-02-24T09:01:39.716Z,5.69
2019-02-24T09:02:39.724Z,4.90
2019-02-24T09:03:39.700Z,5.09
2019-02-24T09:04:39.685Z,5.80
2019-02-24T09:05:39.685Z,6.69
2019-02-24T09:06:39.670Z,6.00
2019-02-24T09:07:39.656Z,6.19
2019-02-24T09:08:39.661Z,5.59
2019-02-24T09:09:39.633Z,6.80
2019-02-24T09:10:39.618Z,5.09
2019-02-24T09:11:39.613Z,6.00
2019-02-24T09:12:39.596Z,4.90
2019-02-24T09:13:39.590Z,4.40
2019-02-24T09:14:39.587Z,5.59
2019-02-24T09:15:39.589Z,5.50
2019-02-24T09:16:39.553Z,5.30
2019-02-24T09:17:39.543Z,6.50
2019-02-24T09:18:39.534Z,4.69
2019-02-24T09:19:39.582Z,5.09
2019-02-24T09:20:39.524Z,4.40
2019-02-24T09:21:39.506Z,4.30
2019-02-24T09:22:39.493Z,5.30
2019-02-24T09:23:39.500Z,4.40
2019-02-24T09:24:39.471Z,4.09
2019-02-24T09:25:39.458Z,4.19
2019-02-24T09:26:39.457Z,5.80
2019-02-24T09:27:39.443Z,4.69
2019-02-24T09:28:39.444Z,4.80
2019-02-24T09:29:39.429Z,5.50
2019-02-24T09:30:39.406Z,4.80
2019-02-24T09:31:39.390Z,4.30
2019-02-24T09:32:39.396Z,4.19
2019-02-24T09:33:39.395Z,4.80
2019-02-24T09:34:39.362Z,4.69
2019-02-24T09:35:39.386Z,4.30
2019-02-24T09:36:39.344Z,4.40
2019-02-24T09:37:39.342Z,4.90
2019-02-24T09:38:39.317Z,5.40
2019-02-24T09:39:39.311Z,3.90
2019-02-24T09:40:39.295Z,5.00
2019-02-24T09:41:39.283Z,4.69
2019-02-24T09:42:39.278Z,4.00
2019-02-24T09:43:39.310Z,4.00
2019-02-24T09:44:39.256Z,5.19
2019-02-24T09:45:39.248Z,4.50
2019-02-24T09:46:39.228Z,4.40
2019-02-24T09:47:46.410Z,6.19
2019-02-24T09:48:40.214Z,5.09
2019-02-24T09:49:39.201Z,4.50
2019-02-24T09:50:39.240Z,4.40
2019-02-24T09:51:39.182Z,4.90
2019-02-24T09:52:39.171Z,4.00
2019-02-24T09:53:39.170Z,6.09
2019-02-24T09:54:39.160Z,4.09
2019-02-24T09:55:39.143Z,6.30
2019-02-24T09:56:39.178Z,6.19
2019-02-24T09:57:39.155Z,4.19
2019-02-24T09:58:39.193Z,5.09
2019-02-24T09:59:39.099Z,4.00
2019-02-24T10:00:39.090Z,4.59
2019-02-24T10:01:39.070Z,4.19
2019-02-24T10:02:39.063Z,4.00
2019-02-24T10:03:39.044Z,5.09
2019-02-24T10:04:39.038Z,3.59
2019-02-24T10:05:39.148Z,4.90
2019-02-24T10:06:39.027Z,5.59
2019-02-24T10:07:39.015Z,3.79
2019-02-24T10:08:38.992Z,4.00
2019-02-24T10:09:39.125Z,4.69
2019-02-24T10:10:38.987Z,4.19
2019-02-24T10:11:38.960Z,4.09
2019-02-24T10:12:38.957Z,4.30
2019-02-24T10:13:38.931Z,4.30
2019-02-24T10:14:38.929Z,5.30
2019-02-24T10:15:38.916Z,3.70
2019-02-24T10:16:38.910Z,4.50
2019-02-24T10:17:38.893Z,4.00
2019-02-24T10:18:38.885Z,4.40
2019-02-24T10:19:38.878Z,4.30
2019-02-24T10:20:38.854Z,4.00
2019-02-24T10:21:38.858Z,4.80
2019-02-24T10:22:38.839Z,5.40
2019-02-24T10:23:38.821Z,4.00
2019-02-24T10:24:38.821Z,4.50
2019-02-24T10:25:38.803Z,3.79
2019-02-24T10:26:38.797Z,3.79
2019-02-24T10:27:38.783Z,4.09
2019-02-24T10:28:38.816Z,6.00
2019-02-24T10:29:38.804Z,4.09
2019-02-24T10:30:38.758Z,3.79
2019-02-24T10:31:38.752Z,4.59
2019-02-24T10:32:38.725Z,4.30
2019-02-24T10:33:38.729Z,4.09
2019-02-24T10:34:38.889Z,4.00
2019-02-24T10:35:38.729Z,4.40
2019-02-24T10:36:38.694Z,4.30
2019-02-24T10:37:38.835Z,5.09
2019-02-24T10:38:38.656Z,4.19
2019-02-24T10:39:38.651Z,4.09
2019-02-24T10:40:38.701Z,4.40
2019-02-24T10:41:38.644Z,5.19
2019-02-24T10:42:38.610Z,4.00
2019-02-24T10:52:40.506Z,3.40
2019-02-24T10:52:40.826Z,3.40
2019-02-24T10:52:40.836Z,3.79
2019-02-24T10:53:38.498Z,3.59
2019-02-24T10:54:38.617Z,4.00
2019-02-24T10:55:38.505Z,4.19
2019-02-24T10:56:38.484Z,3.70
2019-02-24T10:57:38.456Z,3.59
2019-02-24T10:58:38.442Z,3.59
2019-02-24T10:59:38.428Z,3.40
2019-02-24T11:00:38.418Z,3.59
2019-02-24T11:01:38.456Z,3.40
2019-02-24T11:02:38.418Z,5.19
2019-02-24T11:03:38.383Z,3.79
2019-02-24T11:04:38.387Z,3.79
2019-02-24T11:05:38.397Z,3.20
2019-02-24T11:06:38.374Z,3.09
2019-02-24T11:07:38.338Z,3.29
2019-02-24T11:08:38.344Z,3.50
2019-02-24T11:09:38.407Z,3.79
2019-02-24T11:10:38.326Z,3.09
2019-02-24T11:11:38.294Z,3.40
2019-02-24T11:12:38.334Z,3.59
2019-02-24T11:13:38.275Z,3.90
2019-02-24T11:14:38.266Z,3.20
2019-02-24T11:15:38.253Z,3.00
2019-02-24T11:16:38.365Z,3.29
2019-02-24T11:17:38.225Z,2.90
2019-02-24T11:18:38.234Z,3.79
2019-02-24T11:19:38.257Z,3.00
2019-02-24T11:20:38.219Z,3.40
2019-02-24T11:21:38.330Z,4.00
2019-02-24T11:22:38.196Z,3.20
2019-02-24T11:23:38.280Z,3.20
2019-02-24T11:24:38.155Z,3.00
2019-02-24T11:25:38.208Z,3.59
2019-02-24T11:26:38.138Z,3.20
2019-02-24T11:27:38.140Z,2.79
2019-02-24T11:28:38.199Z,2.79
2019-02-24T11:29:38.094Z,2.90
2019-02-24T11:30:38.088Z,3.09
2019-02-24T11:31:38.655Z,3.20
2019-02-24T11:32:38.135Z,3.90
2019-02-24T11:33:38.051Z,3.09
2019-02-24T11:34:38.063Z,3.29
2019-02-24T11:35:38.088Z,3.09
2019-02-24T11:36:38.036Z,3.00
2019-02-24T11:37:38.038Z,2.79
2019-02-24T11:38:38.000Z,2.90
2019-02-24T11:39:37.987Z,3.00
2019-02-24T11:40:37.989Z,2.90
2019-02-24T11:41:37.970Z,3.29
2019-02-24T11:42:37.956Z,2.90
2019-02-24T11:43:37.944Z,3.59
2019-02-24T11:44:37.934Z,4.40
2019-02-24T11:45:37.925Z,3.20
2019-02-24T11:46:37.928Z,3.09
2019-02-24T11:47:37.903Z,3.20
2019-02-24T11:48:37.886Z,2.70
2019-02-24T11:49:37.891Z,2.70
2019-02-24T11:50:37.869Z,3.09
2019-02-24T11:51:37.856Z,3.59
2019-02-24T11:52:37.840Z,3.00
2019-02-24T11:53:37.840Z,2.59
2019-02-24T11:54:37.848Z,3.00
2019-02-24T11:55:37.814Z,2.70
2019-02-24T11:56:37.796Z,3.00
2019-02-24T11:57:37.974Z,2.50
2019-02-24T11:58:37.783Z,3.00
2019-02-24T11:59:37.803Z,2.59
2019-02-24T12:00:37.762Z,2.29
2019-02-24T12:01:37.747Z,2.50
2019-02-24T12:02:38.521Z,2.50
2019-02-24T12:03:37.719Z,2.70
2019-02-24T12:04:37.710Z,3.00
2019-02-24T12:05:37.713Z,2.70
2019-02-24T12:06:37.686Z,2.70
2019-02-24T12:07:37.688Z,2.59
2019-02-24T12:08:37.709Z,2.59
2019-02-24T12:09:37.654Z,2.70
2019-02-24T12:10:37.659Z,2.70
2019-02-24T12:11:37.736Z,2.40
2019-02-24T12:12:37.627Z,2.50
2019-02-24T12:13:37.621Z,2.40
2019-02-24T12:14:37.609Z,2.00
2019-02-24T12:15:37.595Z,2.20
2019-02-24T12:16:37.577Z,2.70
2019-02-24T12:17:37.577Z,2.50
2019-02-24T12:18:37.554Z,2.00
2019-02-24T12:19:37.595Z,2.40
2019-02-24T12:20:37.547Z,3.09
2019-02-24T12:21:37.523Z,2.40
2019-02-24T12:22:37.517Z,2.40
2019-02-24T12:23:37.500Z,2.20
2019-02-24T12:24:37.525Z,2.29
2019-02-24T12:25:37.484Z,2.29
2019-02-24T12:26:37.469Z,2.29
2019-02-24T12:27:37.464Z,2.09
2019-02-24T12:28:37.453Z,2.20
2019-02-24T12:29:37.461Z,2.29
2019-02-24T12:30:37.445Z,2.00
2019-02-24T12:31:37.427Z,2.00
2019-02-24T12:32:37.413Z,1.79
2019-02-24T12:33:37.397Z,2.20
2019-02-24T12:34:37.391Z,1.90
2019-02-24T12:35:37.372Z,2.29
2019-02-24T12:36:37.388Z,2.29
2019-02-24T12:37:37.361Z,2.00
2019-02-24T12:38:37.344Z,2.00
2019-02-24T12:39:37.333Z,3.09
2019-02-24T12:40:37.338Z,2.09
2019-02-24T12:41:37.312Z,2.00
2019-02-24T12:42:37.309Z,2.09
2019-02-24T12:43:37.288Z,2.20
2019-02-24T12:44:37.278Z,2.00
2019-02-24T12:45:37.266Z,2.00
2019-02-24T12:46:37.474Z,2.00
2019-02-24T12:47:37.236Z,1.90
2019-02-24T12:48:37.348Z,2.20
2019-02-24T12:49:37.219Z,2.90
2019-02-24T12:50:37.201Z,2.40
2019-02-24T12:51:37.195Z,2.09
2019-02-24T12:52:37.182Z,2.20
2019-02-24T12:53:37.174Z,2.40
2019-02-24T12:54:37.158Z,2.29
2019-02-24T12:55:37.151Z,1.90
2019-02-24T12:56:37.150Z,2.29
2019-02-24T12:57:37.133Z,2.09
2019-02-24T12:58:37.136Z,3.09
2019-02-24T12:59:37.107Z,2.70
2019-02-24T13:00:37.110Z,2.79
2019-02-24T13:01:37.081Z,3.09
2019-02-24T13:02:37.087Z,2.70
2019-02-24T13:03:37.065Z,2.59
2019-02-24T13:04:37.053Z,2.70
2019-02-24T13:05:37.063Z,3.09
2019-02-24T13:06:37.066Z,2.79
2019-02-24T13:07:37.025Z,2.59
2019-02-24T13:08:37.011Z,3.09
2019-02-24T13:09:36.994Z,2.59
2019-02-24T13:10:36.992Z,2.59
2019-02-24T13:11:37.057Z,2.20
2019-02-24T13:12:36.966Z,3.40
2019-02-24T13:13:36.959Z,2.50
2019-02-24T13:14:37.001Z,2.59
2019-02-24T13:15:36.936Z,3.59
2019-02-24T13:16:36.938Z,2.70
2019-02-24T13:17:37.306Z,2.79
2019-02-24T13:18:36.980Z,2.59
2019-02-24T13:19:36.893Z,2.29
2019-02-24T13:20:36.876Z,2.59
2019-02-24T13:21:36.869Z,2.40